createdAt,value
2023-05-18T20:08:47.865Z,81.70
2023-05-18T20:11:15.818Z,83.00
2023-05-18T20:13:44.916Z,83.90
2023-05-18T20:16:13.730Z,83.60
2023-05-18T20:18:41.864Z,84.00
2023-05-18T20:21:09.782Z,83.90
2023-05-18T20:23:37.717Z,84.00
2023-05-18T20:26:07.022Z,84.10
2023-05-18T20:28:35.055Z,83.80
2023-05-18T20:31:02.993Z,83.60
2023-05-18T20:33:34.142Z,84.10
2023-05-18T20:36:02.049Z,84.10
2023-05-18T20:38:30.468Z,84.10
2023-05-18T20:40:59.466Z,84.20
2023-05-18T20:43:28.882Z,84.70
2023-05-18T20:45:57.043Z,84.80
2023-05-18T20:48:26.686Z,84.60
2023-05-18T20:50:54.874Z,84.70
2023-05-18T20:53:22.817Z,85.00
2023-05-18T20:55:54.079Z,84.80
2023-05-18T20:58:22.282Z,84.50
2023-05-18T21:00:52.116Z,85.20
2023-05-18T21:03:20.209Z,85.10
2023-05-18T21:05:49.757Z,84.70
2023-05-18T21:08:17.653Z,85.10
2023-05-18T21:10:45.549Z,85.20
2023-05-18T21:13:13.512Z,85.10
2023-05-18T21:15:41.408Z,84.70
2023-05-18T21:18:10.810Z,85.20
2023-05-18T21:20:38.788Z,85.30
2023-05-18T21:23:06.774Z,84.80
2023-05-18T21:25:34.664Z,85.00
2023-05-18T21:28:02.635Z,85.20
2023-05-18T21:30:31.404Z,84.80
2023-05-18T21:32:59.732Z,85.30
2023-05-18T21:35:29.245Z,85.10
2023-05-18T21:37:57.212Z,85.40
2023-05-18T21:40:25.096Z,84.70
2023-05-18T21:42:53.898Z,85.20
2023-05-18T21:45:22.536Z,85.10
2023-05-18T21:47:50.861Z,84.80
2023-05-18T21:50:18.928Z,85.40
2023-05-18T21:52:48.211Z,85.50
2023-05-18T21:55:16.243Z,85.20
2023-05-18T21:57:44.181Z,85.20
2023-05-18T22:00:13.735Z,85.30
2023-05-18T22:02:41.806Z,85.50
2023-05-18T22:05:10.583Z,84.80
2023-05-18T22:07:38.505Z,85.70
2023-05-18T22:10:08.456Z,85.50
2023-05-18T22:12:37.694Z,85.20
2023-05-18T22:15:06.509Z,85.50
2023-05-18T22:17:36.594Z,85.10
2023-05-18T22:20:06.370Z,85.40
